Observation data for Haskell on 08/17/2019      Previous  Date       Current Mesonet Observations  Soil Data  Daily Summary Page  Observations in Plain Language
KHA1 170500Z 16009G14KT 32/18 A2986 RMK A01 T03170175  RH  045%=      5-min Rain = 0
KHA1 170505Z 16009KT 32/18 A2986 RMK A01 T03160176  RH  046%=      5-min Rain = 0
KHA1 170510Z 16009G15KT 32/18 A2987 RMK A01 T03150177  RH  046%=      5-min Rain = 0
KHA1 170515Z 16010G18KT 32/18 A2986 RMK A01 T03150177  RH  046%=      5-min Rain = 0
KHA1 170520Z 16010G16KT 31/18 A2986 RMK A01 T03140177  RH  046%=      5-min Rain = 0
KHA1 170525Z 16009G14KT 31/18 A2986 RMK A01 T03130178  RH  047%=      5-min Rain = 0
KHA1 170530Z 16009G15KT 31/18 A2986 RMK A01 T03120178  RH  047%=      5-min Rain = 0
KHA1 170535Z 16009G14KT 31/18 A2986 RMK A01 T03110179  RH  048%=      5-min Rain = 0
KHA1 170540Z 16009G14KT 31/18 A2987 RMK A01 T03110178  RH  047%=      5-min Rain = 0
KHA1 170545Z 15009G14KT 31/18 A2987 RMK A01 T03090179  RH  048%=      5-min Rain = 0
KHA1 170550Z 15009G15KT 31/18 A2987 RMK A01 T03100179  RH  048%=      5-min Rain = 0
KHA1 170555Z 15007G12KT 31/18 A2987 RMK A01 T03070180  RH  049%=      5-min Rain = 0
KHA1 170600Z 15008KT 31/18 A2987 RMK A01 T03060179  RH  049%=      5-min Rain = 0
KHA1 170605Z 16009G14KT 31/18 A2987 RMK A01 T03060180  RH  049%=      5-min Rain = 0
KHA1 170610Z 16008KT 31/18 A2987 RMK A01 T03060179  RH  049%=      5-min Rain = 0
KHA1 170615Z 16009G14KT 31/18 A2987 RMK A01 T03060179  RH  049%=      5-min Rain = 0
KHA1 170620Z 15008G13KT 31/18 A2987 RMK A01 T03050180  RH  050%=      5-min Rain = 0
KHA1 170625Z 15009KT 30/18 A2987 RMK A01 T03030180  RH  050%=      5-min Rain = 0
KHA1 170630Z 15008G13KT 30/18 A2987 RMK A01 T03020180  RH  051%=      5-min Rain = 0
KHA1 170635Z 15009KT 30/18 A2986 RMK A01 T03020180  RH  051%=      5-min Rain = 0
KHA1 170640Z 15008KT 30/18 A2986 RMK A01 T03010181  RH  051%=      5-min Rain = 0
KHA1 170645Z 15009KT 30/18 A2986 RMK A01 T03000181  RH  051%=      5-min Rain = 0
KHA1 170650Z 15009G15KT 30/18 A2986 RMK A01 T02990181  RH  052%=      5-min Rain = 0
KHA1 170655Z 15009KT 30/18 A2986 RMK A01 T02980181  RH  052%=      5-min Rain = 0
KHA1 170700Z 15009KT 30/18 A2986 RMK A01 T02980181  RH  052%=      5-min Rain = 0
KHA1 170705Z 15010G16KT 30/18 A2986 RMK A01 T02980181  RH  052%=      5-min Rain = 0
KHA1 170710Z 15009G14KT 30/18 A2986 RMK A01 T02970181  RH  053%=      5-min Rain = 0
KHA1 170715Z 15009G14KT 30/18 A2986 RMK A01 T02960182  RH  053%=      5-min Rain = 0
KHA1 170720Z 15009KT 30/18 A2985 RMK A01 T02960181  RH  053%=      5-min Rain = 0
KHA1 170725Z 15009G14KT 30/18 A2985 RMK A01 T02950182  RH  053%=      5-min Rain = 0
KHA1 170730Z 15009KT 29/18 A2985 RMK A01 T02940182  RH  054%=      5-min Rain = 0
KHA1 170735Z 15008KT 29/18 A2985 RMK A01 T02930182  RH  054%=      5-min Rain = 0
KHA1 170740Z 14009G15KT 29/18 A2985 RMK A01 T02930182  RH  054%=      5-min Rain = 0
KHA1 170745Z 14008KT 29/18 A2985 RMK A01 T02920182  RH  054%=      5-min Rain = 0
KHA1 170750Z 14009KT 29/18 A2985 RMK A01 T02910182  RH  054%=      5-min Rain = 0
KHA1 170755Z 14008KT 29/18 A2985 RMK A01 T02900182  RH  055%=      5-min Rain = 0
KHA1 170800Z 15009G14KT 29/18 A2985 RMK A01 T02900182  RH  055%=      5-min Rain = 0
KHA1 170805Z 14009G14KT 29/18 A2985 RMK A01 T02900182  RH  055%=      5-min Rain = 0
KHA1 170810Z 15009KT 29/18 A2985 RMK A01 T02880182  RH  056%=      5-min Rain = 0
KHA1 170815Z 15008KT 29/18 A2985 RMK A01 T02870182  RH  056%=      5-min Rain = 0
KHA1 170820Z 15008G13KT 29/18 A2984 RMK A01 T02870182  RH  056%=      5-min Rain = 0
KHA1 170825Z 15009KT 29/18 A2985 RMK A01 T02860182  RH  056%=      5-min Rain = 0
KHA1 170830Z 15008KT 29/18 A2984 RMK A01 T02860182  RH  056%=      5-min Rain = 0
KHA1 170835Z 15008KT 29/18 A2984 RMK A01 T02850182  RH  057%=      5-min Rain = 0
KHA1 170840Z 15009G14KT 29/18 A2984 RMK A01 T02850182  RH  057%=      5-min Rain = 0
KHA1 170845Z 15010G15KT 29/18 A2984 RMK A01 T02850182  RH  057%=      5-min Rain = 0
KHA1 170850Z 16009KT 28/18 A2984 RMK A01 T02840183  RH  057%=      5-min Rain = 0
KHA1 170855Z 15009KT 28/18 A2984 RMK A01 T02830183  RH  057%=      5-min Rain = 0
KHA1 170900Z 15009G15KT 28/18 A2984 RMK A01 T02830183  RH  058%=      5-min Rain = 0
KHA1 170905Z 16009KT 28/18 A2984 RMK A01 T02820182  RH  058%=      5-min Rain = 0
KHA1 170910Z 16009G14KT 28/18 A2984 RMK A01 T02820182  RH  058%=      5-min Rain = 0
KHA1 170915Z 16008G14KT 28/18 A2984 RMK A01 T02810182  RH  058%=      5-min Rain = 0
KHA1 170920Z 16009G14KT 28/18 A2984 RMK A01 T02800182  RH  058%=      5-min Rain = 0
KHA1 170925Z 16008G13KT 28/18 A2984 RMK A01 T02800182  RH  058%=      5-min Rain = 0
KHA1 170930Z 16009KT 28/18 A2984 RMK A01 T02790182  RH  059%=      5-min Rain = 0
KHA1 170935Z 16008KT 28/18 A2984 RMK A01 T02780182  RH  059%=      5-min Rain = 0
KHA1 170940Z 15008G13KT 28/18 A2984 RMK A01 T02780182  RH  059%=      5-min Rain = 0
KHA1 170945Z 15008KT 28/18 A2984 RMK A01 T02770182  RH  059%=      5-min Rain = 0
KHA1 170950Z 16008G13KT 28/18 A2984 RMK A01 T02760182  RH  059%=      5-min Rain = 0
KHA1 170955Z 16007KT 28/18 A2984 RMK A01 T02750182  RH  060%=      5-min Rain = 0
KHA1 171000Z 16007KT 27/18 A2984 RMK A01 T02740182  RH  060%=      5-min Rain = 0
KHA1 171005Z 16008KT 27/18 A2984 RMK A01 T02730182  RH  060%=      5-min Rain = 0
KHA1 171010Z 16008KT 27/18 A2983 RMK A01 T02730181  RH  061%=      5-min Rain = 0
KHA1 171015Z 15007KT 27/18 A2983 RMK A01 T02720181  RH  061%=      5-min Rain = 0
KHA1 171020Z 16007KT 27/18 A2983 RMK A01 T02710181  RH  061%=      5-min Rain = 0
KHA1 171025Z 16007KT 27/18 A2984 RMK A01 T02710181  RH  061%=      5-min Rain = 0
KHA1 171030Z 16007KT 27/18 A2983 RMK A01 T02710181  RH  061%=      5-min Rain = 0
KHA1 171035Z 16007KT 27/18 A2984 RMK A01 T02700181  RH  061%=      5-min Rain = 0
KHA1 171040Z 16006KT 27/18 A2984 RMK A01 T02700180  RH  061%=      5-min Rain = 0
KHA1 171045Z 17008G13KT 27/18 A2984 RMK A01 T02690180  RH  061%=      5-min Rain = 0
KHA1 171050Z 17007KT 27/18 A2984 RMK A01 T02700179  RH  061%=      5-min Rain = 0
KHA1 171055Z 17008KT 27/18 A2983 RMK A01 T02700179  RH  061%=      5-min Rain = 0
KHA1 171100Z 16008KT 27/18 A2983 RMK A01 T02700179  RH  061%=      5-min Rain = 0
KHA1 171105Z 16008KT 27/18 A2984 RMK A01 T02700179  RH  061%=      5-min Rain = 0
KHA1 171110Z 17008G13KT 27/18 A2984 RMK A01 T02700179  RH  060%=      5-min Rain = 0
KHA1 171115Z 17008KT 27/18 A2984 RMK A01 T02710178  RH  060%=      5-min Rain = 0
KHA1 171120Z 17008G14KT 27/18 A2984 RMK A01 T02710178  RH  060%=      5-min Rain = 0
KHA1 171125Z 17009KT 27/18 A2983 RMK A01 T02720178  RH  060%=      5-min Rain = 0
KHA1 171130Z 17009KT 27/18 A2983 RMK A01 T02720178  RH  059%=      5-min Rain = 0
KHA1 171135Z 17008KT 27/18 A2983 RMK A01 T02720178  RH  060%=      5-min Rain = 0
KHA1 171140Z 18008KT 27/18 A2984 RMK A01 T02710178  RH  060%=      5-min Rain = 0
KHA1 171145Z 17009KT 27/18 A2984 RMK A01 T02700178  RH  060%=      5-min Rain = 0
KHA1 171150Z 18009KT 27/18 A2984 RMK A01 T02700177  RH  060%=      5-min Rain = 0
KHA1 171155Z 18008KT 27/18 A2984 RMK A01 T02690178  RH  060%=      5-min Rain = 0
KHA1 171200Z 18008KT 27/18 A2984 RMK A01 T02690177  RH  060%=      5-min Rain = 0
KHA1 171205Z 18009KT 27/18 A2984 RMK A01 T02690177  RH  060%=      5-min Rain = 0
KHA1 171210Z 18009G14KT 27/18 A2984 RMK A01 T02690177  RH  060%=      5-min Rain = 0
KHA1 171215Z 18009KT 27/18 A2984 RMK A01 T02680177  RH  060%=      5-min Rain = 0
KHA1 171220Z 18009KT 27/18 A2984 RMK A01 T02690177  RH  060%=      5-min Rain = 0
KHA1 171225Z 18008KT 27/18 A2985 RMK A01 T02690178  RH  060%=      5-min Rain = 0
KHA1 171230Z 18008G13KT 27/18 A2985 RMK A01 T02690178  RH  061%=      5-min Rain = 0
KHA1 171235Z 18008KT 27/18 A2985 RMK A01 T02690178  RH  061%=      5-min Rain = 0
KHA1 171240Z 18008KT 27/18 A2985 RMK A01 T02700178  RH  060%=      5-min Rain = 0
KHA1 171245Z 18009KT 27/18 A2985 RMK A01 T02710178  RH  060%=      5-min Rain = 0
KHA1 171250Z 18008KT 27/18 A2985 RMK A01 T02710179  RH  060%=      5-min Rain = 0
KHA1 171255Z 18008KT 27/18 A2985 RMK A01 T02720179  RH  060%=      5-min Rain = 0
KHA1 171300Z 19009KT 27/18 A2986 RMK A01 T02730179  RH  060%=      5-min Rain = 0
KHA1 171305Z 18009KT 27/18 A2986 RMK A01 T02740180  RH  059%=      5-min Rain = 0
KHA1 171310Z 19009KT 28/18 A2986 RMK A01 T02760180  RH  059%=      5-min Rain = 0
KHA1 171315Z 19009KT 28/18 A2986 RMK A01 T02770180  RH  059%=      5-min Rain = 0
KHA1 171320Z 19009G14KT 28/18 A2986 RMK A01 T02790181  RH  058%=      5-min Rain = 0
KHA1 171325Z 19011KT 28/18 A2986 RMK A01 T02800181  RH  058%=      5-min Rain = 0
KHA1 171330Z 19010KT 28/18 A2986 RMK A01 T02820182  RH  057%=      5-min Rain = 0
KHA1 171335Z 18010G15KT 28/18 A2986 RMK A01 T02840182  RH  057%=      5-min Rain = 0
KHA1 171340Z 18010G16KT 29/18 A2986 RMK A01 T02860183  RH  056%=      5-min Rain = 0
KHA1 171345Z 18010KT 29/18 A2986 RMK A01 T02870183  RH  056%=      5-min Rain = 0
KHA1 171350Z 19011KT 29/18 A2986 RMK A01 T02900183  RH  055%=      5-min Rain = 0
KHA1 171355Z 19013KT 29/18 A2986 RMK A01 T02910182  RH  055%=      5-min Rain = 0
KHA1 171400Z 19013G20KT 29/18 A2986 RMK A01 T02930183  RH  054%=      5-min Rain = 0
KHA1 171405Z 19012G17KT 29/18 A2986 RMK A01 T02940183  RH  054%=      5-min Rain = 0
KHA1 171410Z 19014G20KT 30/18 A2986 RMK A01 T02960183  RH  053%=      5-min Rain = 0
KHA1 171415Z 19013G19KT 30/18 A2986 RMK A01 T02970183  RH  053%=      5-min Rain = 0
KHA1 171420Z 19014KT 30/18 A2986 RMK A01 T02980183  RH  053%=      5-min Rain = 0
KHA1 171425Z 18013KT 30/18 A2986 RMK A01 T02990183  RH  053%=      5-min Rain = 0
KHA1 171430Z 19014G19KT 30/18 A2986 RMK A01 T03010183  RH  052%=      5-min Rain = 0
KHA1 171435Z 19013G18KT 30/18 A2986 RMK A01 T03040183  RH  051%=      5-min Rain = 0
KHA1 171440Z 19014KT 31/18 A2986 RMK A01 T03050183  RH  051%=      5-min Rain = 0
KHA1 171445Z 19014G19KT 31/18 A2986 RMK A01 T03070183  RH  050%=      5-min Rain = 0
KHA1 171450Z 19012G17KT 31/18 A2986 RMK A01 T03100184  RH  050%=      5-min Rain = 0
KHA1 171455Z 19013G18KT 31/18 A2986 RMK A01 T03110182  RH  049%=      5-min Rain = 0
KHA1 171500Z 19013G18KT 31/18 A2986 RMK A01 T03120182  RH  049%=      5-min Rain = 0
KHA1 171505Z 19013KT 31/18 A2986 RMK A01 T03140182  RH  048%=      5-min Rain = 0
KHA1 171510Z 19013G19KT 31/18 A2986 RMK A01 T03140183  RH  048%=      5-min Rain = 0
KHA1 171515Z 20015G20KT 32/18 A2986 RMK A01 T03160181  RH  047%=      5-min Rain = 0
KHA1 171520Z 20015G20KT 32/18 A2986 RMK A01 T03210181  RH  046%=      5-min Rain = 0
KHA1 171525Z 19015G20KT 32/18 A2986 RMK A01 T03220181  RH  045%=      5-min Rain = 0
KHA1 171530Z 20015KT 32/18 A2986 RMK A01 T03240181  RH  045%=      5-min Rain = 0
KHA1 171535Z 19014KT 33/18 A2986 RMK A01 T03280181  RH  044%=      5-min Rain = 0
KHA1 171540Z 20015KT 33/18 A2986 RMK A01 T03270181  RH  044%=      5-min Rain = 0
KHA1 171545Z 20017G22KT 33/18 A2986 RMK A01 T03280180  RH  044%=      5-min Rain = 0
KHA1 171550Z 20015G23KT 33/18 A2986 RMK A01 T03320180  RH  043%=      5-min Rain = 0
KHA1 171555Z 21015G22KT 34/18 A2986 RMK A01 T03360180  RH  042%=      5-min Rain = 0
KHA1 171600Z 21016G21KT 34/18 A2986 RMK A01 T03350179  RH  042%=      5-min Rain = 0
KHA1 171605Z 20014G20KT 34/18 A2986 RMK A01 T03380180  RH  041%=      5-min Rain = 0
KHA1 171610Z 19014G20KT 34/18 A2986 RMK A01 T03420181  RH  041%=      5-min Rain = 0
KHA1 171615Z 19016G22KT 34/18 A2985 RMK A01 T03420178  RH  040%=      5-min Rain = 0
KHA1 171620Z 20015G21KT 34/18 A2985 RMK A01 T03420180  RH  040%=      5-min Rain = 0
KHA1 171625Z 19016G22KT 34/18 A2985 RMK A01 T03430178  RH  040%=      5-min Rain = 0
KHA1 171630Z 20015G20KT 35/18 A2985 RMK A01 T03490179  RH  039%=      5-min Rain = 0
KHA1 171635Z 20012G17KT 35/18 A2985 RMK A01 T03490180  RH  039%=      5-min Rain = 0
KHA1 171640Z 20014G19KT 35/18 A2985 RMK A01 T03510179  RH  038%=      5-min Rain = 0
KHA1 171645Z 20014KT 35/18 A2985 RMK A01 T03530179  RH  038%=      5-min Rain = 0
KHA1 171650Z 21013G18KT 35/18 A2985 RMK A01 T03520179  RH  038%=      5-min Rain = 0
KHA1 171655Z 19013G18KT 36/18 A2985 RMK A01 T03560179  RH  037%=      5-min Rain = 0
KHA1 171700Z 19012G17KT 36/18 A2985 RMK A01 T03570178  RH  037%=      5-min Rain = 0
KHA1 171705Z 20013KT 36/18 A2985 RMK A01 T03610179  RH  036%=      5-min Rain = 0
KHA1 171710Z 20016G22KT 36/18 A2984 RMK A01 T03620178  RH  036%=      5-min Rain = 0
KHA1 171715Z 20014G20KT 36/18 A2984 RMK A01 T03610179  RH  036%=      5-min Rain = 0
KHA1 171720Z 21014KT 37/18 A2984 RMK A01 T03650180  RH  036%=      5-min Rain = 0
KHA1 171725Z 19014G19KT 36/18 A2984 RMK A01 T03640177  RH  035%=      5-min Rain = 0
KHA1 171730Z 20014G19KT 37/18 A2984 RMK A01 T03670179  RH  035%=      5-min Rain = 0
KHA1 171735Z 20015G21KT 37/18 A2984 RMK A01 T03660177  RH  035%=      5-min Rain = 0
KHA1 171740Z 20013G19KT 37/18 A2984 RMK A01 T03720180  RH  034%=      5-min Rain = 0
KHA1 171745Z 20013G21KT 37/18 A2983 RMK A01 T03710178  RH  034%=      5-min Rain = 0
KHA1 171750Z 20013G20KT 37/18 A2983 RMK A01 T03700177  RH  034%=      5-min Rain = 0
KHA1 171755Z 19012G18KT 37/18 A2983 RMK A01 T03730178  RH  034%=      5-min Rain = 0
KHA1 171800Z 21012G21KT 38/18 A2983 RMK A01 T03760179  RH  033%=      5-min Rain = 0
KHA1 171805Z 20014KT 38/18 A2983 RMK A01 T03780179  RH  033%=      5-min Rain = 0
KHA1 171810Z 19013KT 38/18 A2982 RMK A01 T03770178  RH  033%=      5-min Rain = 0
KHA1 171815Z 19012G19KT 38/18 A2982 RMK A01 T03780176  RH  032%=      5-min Rain = 0
KHA1 171820Z 18012G18KT 38/18 A2982 RMK A01 T03780179  RH  033%=      5-min Rain = 0
KHA1 171825Z 21013G18KT 39/18 A2982 RMK A01 T03850177  RH  031%=      5-min Rain = 0
KHA1 171830Z 18013G20KT 38/18 A2982 RMK A01 T03840178  RH  032%=      5-min Rain = 0
KHA1 171835Z 17010G16KT 38/18 A2981 RMK A01 T03830178  RH  032%=      5-min Rain = 0
KHA1 171840Z 18014G20KT 38/18 A2981 RMK A01 T03840176  RH  031%=      5-min Rain = 0
KHA1 171845Z 20014G19KT 38/17 A2981 RMK A01 T03840174  RH  031%=      5-min Rain = 0
KHA1 171850Z 19014G20KT 39/17 A2981 RMK A01 T03860171  RH  030%=      5-min Rain = 0
KHA1 171855Z 20013G19KT 38/17 A298 RMK A01 T03830171  RH  030%=      5-min Rain = 0
KHA1 171900Z 18012G18KT 39/17 A298 RMK A01 T03860172  RH  030%=      5-min Rain = 0
KHA1 171905Z 18012G17KT 39/17 A298 RMK A01 T03870171  RH  030%=      5-min Rain = 0
KHA1 171910Z 19014G19KT 39/17 A298 RMK A01 T03900171  RH  029%=      5-min Rain = 0
KHA1 171915Z 19013G19KT 39/17 A298 RMK A01 T03910165  RH  028%=      5-min Rain = 0
KHA1 171920Z 18011G17KT 39/17 A298 RMK A01 T03900166  RH  028%=      5-min Rain = 0
KHA1 171925Z 19014G20KT 39/17 A2979 RMK A01 T03880167  RH  029%=      5-min Rain = 0
KHA1 171930Z 19010G17KT 39/17 A2979 RMK A01 T03900167  RH  029%=      5-min Rain = 0
KHA1 171935Z 18011G19KT 39/17 A2979 RMK A01 T03930166  RH  028%=      5-min Rain = 0
KHA1 171940Z 18011KT 39/17 A2979 RMK A01 T03920165  RH  028%=      5-min Rain = 0
KHA1 171945Z 20013G20KT 40/16 A2979 RMK A01 T03960164  RH  027%=      5-min Rain = 0
KHA1 171950Z 21012G19KT 40/16 A2979 RMK A01 T03950160  RH  027%=      5-min Rain = 0
KHA1 171955Z 21015G21KT 40/16 A2978 RMK A01 T03960162  RH  027%=      5-min Rain = 0
KHA1 172000Z 19010G15KT 40/16 A2978 RMK A01 T03950164  RH  027%=      5-min Rain = 0
KHA1 172005Z 18010KT 39/17 A2978 RMK A01 T03920166  RH  028%=      5-min Rain = 0
KHA1 172010Z 20012G17KT 40/17 A2978 RMK A01 T03980165  RH  027%=      5-min Rain = 0
KHA1 172015Z 20014G21KT 40/16 A2978 RMK A01 T03970163  RH  027%=      5-min Rain = 0
KHA1 172020Z 19011G16KT 40/16 A2978 RMK A01 T03980158  RH  026%=      5-min Rain = 0
KHA1 172025Z 19011G19KT 40/16 A2977 RMK A01 T04000155  RH  025%=      5-min Rain = 0
KHA1 172030Z 19010G16KT 40/17 A2977 RMK A01 T03980166  RH  027%=      5-min Rain = 0
KHA1 172035Z 17012G17KT 40/16 A2977 RMK A01 T03970156  RH  026%=      5-min Rain = 0
KHA1 172040Z 17009G16KT 39/16 A2977 RMK A01 T03900155  RH  026%=      5-min Rain = 0
KHA1 172045Z 19010G18KT 40/16 A2976 RMK A01 T03990156  RH  025%=      5-min Rain = 0
KHA1 172050Z 17013G21KT 40/15 A2976 RMK A01 T03960151  RH  025%=      5-min Rain = 0
KHA1 172055Z 16011KT 40/15 A2976 RMK A01 T03950146  RH  024%=      5-min Rain = 0
KHA1 172100Z 16008G15KT 39/15 A2976 RMK A01 T03910151  RH  026%=      5-min Rain = 0
KHA1 172105Z 17012G19KT 39/15 A2976 RMK A01 T03940150  RH  025%=      5-min Rain = 0
KHA1 172110Z 16008G14KT 40/14 A2975 RMK A01 T03960139  RH  023%=      5-min Rain = 0
KHA1 172115Z 18009KT 40/14 A2975 RMK A01 T04010144  RH  023%=      5-min Rain = 0
KHA1 172120Z 20010G16KT 40/15 A2975 RMK A01 T04020148  RH  024%=      5-min Rain = 0
KHA1 172125Z 16011G17KT 40/15 A2974 RMK A01 T04000151  RH  024%=      5-min Rain = 0
KHA1 172130Z 16010G15KT 39/16 A2974 RMK A01 T03940157  RH  026%=      5-min Rain = 0
KHA1 172135Z 16010G18KT 40/16 A2974 RMK A01 T03960159  RH  026%=      5-min Rain = 0
KHA1 172140Z 15013G18KT 39/16 A2974 RMK A01 T03920159  RH  027%=      5-min Rain = 0
KHA1 172145Z 16011G18KT 39/16 A2973 RMK A01 T03900157  RH  027%=      5-min Rain = 0
KHA1 172150Z 16009G15KT 39/16 A2973 RMK A01 T03920157  RH  027%=      5-min Rain = 0
KHA1 172155Z 19013G19KT 40/15 A2973 RMK A01 T04030151  RH  024%=      5-min Rain = 0
KHA1 172200Z 19013G18KT 41/15 A2973 RMK A01 T04050148  RH  023%=      5-min Rain = 0
KHA1 172205Z 18011G20KT 40/15 A2973 RMK A01 T04000148  RH  024%=      5-min Rain = 0
KHA1 172210Z 18012G18KT 40/15 A2973 RMK A01 T03990150  RH  024%=      5-min Rain = 0
KHA1 172215Z 17011G16KT 40/15 A2973 RMK A01 T03990152  RH  025%=      5-min Rain = 0
KHA1 172220Z 15014G19KT 39/15 A2973 RMK A01 T03920151  RH  025%=      5-min Rain = 0
KHA1 172225Z 16013G19KT 39/15 A2973 RMK A01 T03920148  RH  025%=      5-min Rain = 0
KHA1 172230Z 17011G16KT 40/15 A2972 RMK A01 T03950147  RH  024%=      5-min Rain = 0
KHA1 172235Z 19012G18KT 40/14 A2972 RMK A01 T04010142  RH  023%=      5-min Rain = 0
KHA1 172240Z 18010G16KT 40/14 A2972 RMK A01 T04010143  RH  023%=      5-min Rain = 0
KHA1 172245Z 17013G19KT 40/15 A2972 RMK A01 T03990145  RH  023%=      5-min Rain = 0
KHA1 172250Z 15009KT 39/15 A2972 RMK A01 T03920149  RH  025%=      5-min Rain = 0
KHA1 172255Z 16013G21KT 39/15 A2972 RMK A01 T03910145  RH  024%=      5-min Rain = 0
KHA1 172300Z 17014G21KT 40/14 A2971 RMK A01 T03950140  RH  023%=      5-min Rain = 0
KHA1 172305Z 16010G16KT 39/15 A2971 RMK A01 T03920145  RH  024%=      5-min Rain = 0
KHA1 172310Z 17012G17KT 40/14 A2971 RMK A01 T03960143  RH  024%=      5-min Rain = 0
KHA1 172315Z 17011G16KT 39/14 A2971 RMK A01 T03920140  RH  024%=      5-min Rain = 0
KHA1 172320Z 15009G14KT 39/15 A2971 RMK A01 T03890146  RH  025%=      5-min Rain = 0
KHA1 172325Z 17010G15KT 39/14 A2971 RMK A01 T03900142  RH  024%=      5-min Rain = 0
KHA1 172330Z 17009G14KT 39/14 A2971 RMK A01 T03920143  RH  024%=      5-min Rain = 0
KHA1 172335Z 17012G17KT 39/14 A2971 RMK A01 T03890137  RH  023%=      5-min Rain = 0
KHA1 172340Z 16008G13KT 39/14 A2971 RMK A01 T03850137  RH  024%=      5-min Rain = 0
KHA1 172345Z 17009G16KT 38/14 A2971 RMK A01 T03820137  RH  024%=      5-min Rain = 0
KHA1 172350Z 17008KT 38/14 A2971 RMK A01 T03800138  RH  025%=      5-min Rain = 0
KHA1 172355Z 17007KT 38/14 A2971 RMK A01 T03780139  RH  025%=      5-min Rain = 0
KHA1 180000Z 17008KT 38/14 A2971 RMK A01 T03770137  RH  025%=      5-min Rain = 0
KHA1 180005Z 17008KT 38/14 A2971 RMK A01 T03780137  RH  025%=      5-min Rain = 0
KHA1 180010Z 17007G12KT 38/14 A2971 RMK A01 T03770137  RH  025%=      5-min Rain = 0
KHA1 180015Z 17007KT 38/14 A2971 RMK A01 T03760139  RH  025%=      5-min Rain = 0
KHA1 180020Z 17007G14KT 38/14 A2971 RMK A01 T03770138  RH  025%=      5-min Rain = 0
KHA1 180025Z 17009KT 38/14 A2971 RMK A01 T03760138  RH  025%=      5-min Rain = 0
KHA1 180030Z 17007KT 38/14 A2972 RMK A01 T03760138  RH  025%=      5-min Rain = 0
KHA1 180035Z 17008G15KT 38/14 A2972 RMK A01 T03760139  RH  026%=      5-min Rain = 0
KHA1 180040Z 17008G13KT 38/14 A2972 RMK A01 T03760137  RH  025%=      5-min Rain = 0
KHA1 180045Z 17008KT 38/14 A2973 RMK A01 T03760137  RH  025%=      5-min Rain = 0
KHA1 180050Z 18008G13KT 38/14 A2973 RMK A01 T03770136  RH  025%=      5-min Rain = 0
KHA1 180055Z 25009G16KT 37/14 A2974 RMK A01 T03740140  RH  026%=      5-min Rain = 0
KHA1 180100Z 30010G17KT 35/15 A2975 RMK A01 T03490147  RH  031%=      5-min Rain = 0
KHA1 180105Z 31010G16KT 34/14 A2975 RMK A01 T03410142  RH  032%=      5-min Rain = 0
KHA1 180110Z 31007G19KT 34/14 A2975 RMK A01 T03410139  RH  031%=      5-min Rain = 0
KHA1 180115Z 30017KT 34/13 A2975 RMK A01 T03350132  RH  030%=      5-min Rain = 0
KHA1 180120Z 30015G20KT 33/13 A2976 RMK A01 T03320131  RH  031%=      5-min Rain = 0
KHA1 180125Z 29013KT 33/13 A2976 RMK A01 T03290133  RH  032%=      5-min Rain = 0
KHA1 180130Z 30012G17KT 33/14 A2976 RMK A01 T03270135  RH  032%=      5-min Rain = 0
KHA1 180135Z 32012G18KT 32/14 A2975 RMK A01 T03240139  RH  034%=      5-min Rain = 0
KHA1 180140Z 34011G18KT 32/14 A2975 RMK A01 T03240144  RH  035%=      5-min Rain = 0
KHA1 180145Z 35009KT 32/15 A2975 RMK A01 T03210151  RH  038%=      5-min Rain = 0
KHA1 180150Z 34013KT 32/15 A2975 RMK A01 T03200154  RH  039%=      5-min Rain = 0
KHA1 180155Z 36012KT 32/16 A2975 RMK A01 T03160156  RH  040%=      5-min Rain = 0
KHA1 180200Z 01012G17KT 31/16 A2976 RMK A01 T03110155  RH  041%=      5-min Rain = 0
KHA1 180205Z 02010G15KT 31/16 A2976 RMK A01 T03100158  RH  042%=      5-min Rain = 0
KHA1 180210Z 04018G23KT 32/16 A2977 RMK A01 T03210161  RH  040%=      5-min Rain = 0
KHA1 180215Z 05015G20KT 32/16 A2977 RMK A01 T03220158  RH  039%=      5-min Rain = 0
KHA1 180220Z 05014G19KT 32/15 A2976 RMK A01 T03190152  RH  038%=      5-min Rain = 0
KHA1 180225Z 05012G18KT 32/15 A2976 RMK A01 T03190149  RH  037%=      5-min Rain = 0
KHA1 180230Z 06012G18KT 32/15 A2975 RMK A01 T03190147  RH  037%=      5-min Rain = 0
KHA1 180235Z 07010G16KT 32/15 A2975 RMK A01 T03180149  RH  038%=      5-min Rain = 0
KHA1 180240Z 09007G12KT 31/15 A2975 RMK A01 T03140153  RH  039%=      5-min Rain = 0
KHA1 180245Z 09006KT 31/16 A2976 RMK A01 T03110155  RH  041%=      5-min Rain = 0
KHA1 180250Z 10006KT 31/16 A2976 RMK A01 T03090158  RH  042%=      5-min Rain = 0
KHA1 180255Z 11006KT 31/16 A2976 RMK A01 T03090160  RH  043%=      5-min Rain = 0
KHA1 180300Z 12006KT 31/16 A2976 RMK A01 T03100160  RH  043%=      5-min Rain = 0
KHA1 180305Z 12007KT 32/16 A2977 RMK A01 T03150156  RH  040%=      5-min Rain = 0
KHA1 180310Z 13008KT 32/15 A2977 RMK A01 T03210153  RH  038%=      5-min Rain = 0
KHA1 180315Z 13008KT 33/15 A2977 RMK A01 T03260152  RH  037%=      5-min Rain = 0
KHA1 180320Z 13009G14KT 33/15 A2978 RMK A01 T03280153  RH  036%=      5-min Rain = 0
KHA1 180325Z 13010KT 33/15 A2978 RMK A01 T03320153  RH  036%=      5-min Rain = 0
KHA1 180330Z 12009KT 33/16 A2978 RMK A01 T03330156  RH  036%=      5-min Rain = 0
KHA1 180335Z 12008KT 33/16 A2979 RMK A01 T03320160  RH  037%=      5-min Rain = 0
KHA1 180340Z 12007KT 33/16 A2979 RMK A01 T03320164  RH  039%=      5-min Rain = 0
KHA1 180345Z 13009G14KT 33/17 A298 RMK A01 T03320169  RH  040%=      5-min Rain = 0
KHA1 180350Z 13008G13KT 33/17 A2981 RMK A01 T03310172  RH  041%=      5-min Rain = 0
KHA1 180355Z 10005G10KT 33/17 A2982 RMK A01 T03300172  RH  041%=      5-min Rain = 0
KHA1 180400Z 05004KT 33/17 A2983 RMK A01 T03290174  RH  042%=      5-min Rain = 0
KHA1 180405Z 33011G16KT 31/18 A2985 RMK A01 T03140181  RH  048%=      5-min Rain = 0
KHA1 180410Z 33013G19KT 31/18 A2986 RMK A01 T03090177  RH  048%=      5-min Rain = 0
KHA1 180415Z 01013KT 32/18 A2985 RMK A01 T03180179  RH  046%=      5-min Rain = 0
KHA1 180420Z 04008G13KT 30/20 A2985 RMK A01 T03030198  RH  057%=      5-min Rain = 0.03
KHA1 180425Z 03007KT 30/20 A2986 RMK A01 T02950196  RH  058%=      5-min Rain = 0.02
KHA1 180430Z 02005G11KT 28/20 A2986 RMK A01 T02790199  RH  065%=      5-min Rain = 0.01
KHA1 180435Z 15001KT 29/20 A2986 RMK A01 T02850201  RH  064%=      5-min Rain = 0
KHA1 180440Z 14006KT 27/21 A2986 RMK A01 T02730208  RH  072%=      5-min Rain = 0
KHA1 180445Z 15008KT 29/20 A2986 RMK A01 T02860195  RH  061%=      5-min Rain = 0
KHA1 180450Z 14007KT 29/20 A2986 RMK A01 T02860197  RH  062%=      5-min Rain = 0
KHA1 180455Z 15008KT 29/20 A2986 RMK A01 T02860198  RH  062%=      5-min Rain = 0

Page generated in 0.009 seconds.